GED weather

Sussex County Airport
Georgetown, Delaware, United States

Public forecast

Using degrees Fahrenheit for public forecast. Weather courtesy of forecast.io.

METAR (pilot weather report)

Retrieved 2019/09/19 18:54 UTC (58 minutes ago):

KGED 191854Z AUTO 04005KT 10SM SCT041 21/11 A3032 RMK AO2 SLP266 T02110106

TAF (pilot weather forecast)

Closest forecast is Salisbury Ocean City Wicomico Regional Airport, 22.1 nm (41.0 km) SSW. Retrieved 2019/09/19 18:33 UTC (1 hour ago):

TAF KSBY 191730Z 1918/2018 07009KT P6SM OVC040 FM200000 VRB04KT P6SM SKC